sensor_id;sensor_type;location;lat;lon;timestamp;P1;durP1;ratioP1;P2;durP2;ratioP2
14740;SDS011;7462;53.530;9.414;2023-02-15T00:02:05;26.17;;;17.20;;
14740;SDS011;7462;53.530;9.414;2023-02-15T00:04:33;27.70;;;17.07;;
14740;SDS011;7462;53.530;9.414;2023-02-15T00:07:18;28.53;;;17.90;;
14740;SDS011;7462;53.530;9.414;2023-02-15T00:09:46;30.80;;;19.67;;
14740;SDS011;7462;53.530;9.414;2023-02-15T00:12:15;26.67;;;17.73;;
14740;SDS011;7462;53.530;9.414;2023-02-15T00:14:43;29.37;;;17.83;;
14740;SDS011;7462;53.530;9.414;2023-02-15T00:17:12;33.33;;;19.57;;
14740;SDS011;7462;53.530;9.414;2023-02-15T00:19:39;28.13;;;19.47;;
14740;SDS011;7462;53.530;9.414;2023-02-15T00:22:08;30.20;;;19.07;;
14740;SDS011;7462;53.530;9.414;2023-02-15T00:24:37;35.17;;;22.40;;
14740;SDS011;7462;53.530;9.414;2023-02-15T00:27:05;26.90;;;18.23;;
14740;SDS011;7462;53.530;9.414;2023-02-15T00:29:35;28.40;;;17.23;;
14740;SDS011;7462;53.530;9.414;2023-02-15T00:32:03;27.53;;;17.87;;
14740;SDS011;7462;53.530;9.414;2023-02-15T00:34:32;27.13;;;17.33;;
14740;SDS011;7462;53.530;9.414;2023-02-15T00:37:00;29.83;;;18.03;;
14740;SDS011;7462;53.530;9.414;2023-02-15T00:39:28;31.33;;;20.60;;
14740;SDS011;7462;53.530;9.414;2023-02-15T00:41:59;34.97;;;21.70;;
14740;SDS011;7462;53.530;9.414;2023-02-15T00:44:27;33.77;;;21.10;;
14740;SDS011;7462;53.530;9.414;2023-02-15T00:46:55;31.27;;;20.50;;
14740;SDS011;7462;53.530;9.414;2023-02-15T00:49:23;33.60;;;21.10;;
14740;SDS011;7462;53.530;9.414;2023-02-15T00:51:52;37.37;;;22.70;;
14740;SDS011;7462;53.530;9.414;2023-02-15T00:54:20;37.23;;;22.83;;
14740;SDS011;7462;53.530;9.414;2023-02-15T00:56:49;36.60;;;22.43;;
14740;SDS011;7462;53.530;9.414;2023-02-15T00:59:18;39.13;;;22.83;;
14740;SDS011;7462;53.530;9.414;2023-02-15T01:01:46;40.97;;;23.30;;
14740;SDS011;7462;53.530;9.414;2023-02-15T01:04:18;41.17;;;24.13;;
14740;SDS011;7462;53.530;9.414;2023-02-15T01:06:46;39.17;;;23.17;;
14740;SDS011;7462;53.530;9.414;2023-02-15T01:09:14;37.47;;;23.40;;
14740;SDS011;7462;53.530;9.414;2023-02-15T01:11:42;41.10;;;23.80;;
14740;SDS011;7462;53.530;9.414;2023-02-15T01:14:10;33.83;;;22.47;;
14740;SDS011;7462;53.530;9.414;2023-02-15T01:16:41;38.07;;;23.13;;
14740;SDS011;7462;53.530;9.414;2023-02-15T01:19:09;30.43;;;19.87;;
14740;SDS011;7462;53.530;9.414;2023-02-15T01:21:38;39.73;;;23.07;;
14740;SDS011;7462;53.530;9.414;2023-02-15T01:24:10;38.97;;;22.43;;
14740;SDS011;7462;53.530;9.414;2023-02-15T01:26:39;36.97;;;23.37;;
14740;SDS011;7462;53.530;9.414;2023-02-15T01:29:07;32.20;;;21.57;;
14740;SDS011;7462;53.530;9.414;2023-02-15T01:31:35;35.87;;;20.90;;
14740;SDS011;7462;53.530;9.414;2023-02-15T01:34:07;31.77;;;20.63;;
14740;SDS011;7462;53.530;9.414;2023-02-15T01:36:37;28.47;;;20.03;;
14740;SDS011;7462;53.530;9.414;2023-02-15T01:39:06;28.83;;;19.50;;
14740;SDS011;7462;53.530;9.414;2023-02-15T01:41:36;32.77;;;19.53;;
14740;SDS011;7462;53.530;9.414;2023-02-15T01:47:02;25.33;;;17.03;;
14740;SDS011;7462;53.530;9.414;2023-02-15T01:49:32;27.03;;;20.17;;
14740;SDS011;7462;53.530;9.414;2023-02-15T01:52:00;29.20;;;20.00;;
14740;SDS011;7462;53.530;9.414;2023-02-15T01:54:29;25.53;;;18.80;;
14740;SDS011;7462;53.530;9.414;2023-02-15T01:57:00;22.10;;;17.60;;
14740;SDS011;7462;53.530;9.414;2023-02-15T01:59:31;23.23;;;17.43;;
14740;SDS011;7462;53.530;9.414;2023-02-15T02:02:01;24.27;;;17.63;;
14740;SDS011;7462;53.530;9.414;2023-02-15T02:04:33;22.30;;;17.40;;
14740;SDS011;7462;53.530;9.414;2023-02-15T02:07:07;20.50;;;16.27;;
14740;SDS011;7462;53.530;9.414;2023-02-15T02:09:37;19.60;;;14.93;;
14740;SDS011;7462;53.530;9.414;2023-02-15T02:12:05;22.37;;;16.73;;
14740;SDS011;7462;53.530;9.414;2023-02-15T02:14:34;22.70;;;16.63;;
14740;SDS011;7462;53.530;9.414;2023-02-15T02:17:04;22.53;;;17.27;;
14740;SDS011;7462;53.530;9.414;2023-02-15T02:32:15;24.50;;;18.07;;
14740;SDS011;7462;53.530;9.414;2023-02-15T02:35:01;27.53;;;17.63;;
14740;SDS011;7462;53.530;9.414;2023-02-15T02:37:37;23.00;;;17.47;;
14740;SDS011;7462;53.530;9.414;2023-02-15T02:40:16;23.73;;;15.83;;
14740;SDS011;7462;53.530;9.414;2023-02-15T02:42:52;21.87;;;16.83;;
14740;SDS011;7462;53.530;9.414;2023-02-15T02:45:28;23.43;;;16.83;;
14740;SDS011;7462;53.530;9.414;2023-02-15T02:48:00;21.03;;;16.57;;
14740;SDS011;7462;53.530;9.414;2023-02-15T02:50:34;21.03;;;16.13;;
14740;SDS011;7462;53.530;9.414;2023-02-15T02:53:02;23.90;;;17.33;;
14740;SDS011;7462;53.530;9.414;2023-02-15T02:55:31;21.07;;;16.43;;
14740;SDS011;7462;53.530;9.414;2023-02-15T02:58:04;18.27;;;13.53;;
14740;SDS011;7462;53.530;9.414;2023-02-15T03:00:37;19.60;;;16.33;;
14740;SDS011;7462;53.530;9.414;2023-02-15T03:03:08;22.27;;;16.10;;
14740;SDS011;7462;53.530;9.414;2023-02-15T03:05:43;22.00;;;15.73;;
14740;SDS011;7462;53.530;9.414;2023-02-15T03:08:14;17.90;;;13.23;;
14740;SDS011;7462;53.530;9.414;2023-02-15T03:10:48;21.90;;;16.17;;
14740;SDS011;7462;53.530;9.414;2023-02-15T03:13:19;22.07;;;17.10;;
14740;SDS011;7462;53.530;9.414;2023-02-15T03:15:47;22.17;;;15.97;;
14740;SDS011;7462;53.530;9.414;2023-02-15T03:18:35;18.50;;;14.23;;
14740;SDS011;7462;53.530;9.414;2023-02-15T03:21:09;22.50;;;17.60;;
14740;SDS011;7462;53.530;9.414;2023-02-15T03:23:49;29.93;;;17.43;;
14740;SDS011;7462;53.530;9.414;2023-02-15T03:26:22;25.93;;;16.00;;
14740;SDS011;7462;53.530;9.414;2023-02-15T03:28:52;23.20;;;16.30;;
14740;SDS011;7462;53.530;9.414;2023-02-15T03:31:24;21.70;;;15.73;;
14740;SDS011;7462;53.530;9.414;2023-02-15T03:33:58;19.70;;;15.97;;
14740;SDS011;7462;53.530;9.414;2023-02-15T03:36:32;21.27;;;16.03;;
14740;SDS011;7462;53.530;9.414;2023-02-15T03:39:10;21.60;;;15.57;;
14740;SDS011;7462;53.530;9.414;2023-02-15T03:41:45;24.60;;;16.17;;
14740;SDS011;7462;53.530;9.414;2023-02-15T03:44:20;18.87;;;13.83;;
14740;SDS011;7462;53.530;9.414;2023-02-15T03:46:56;21.03;;;14.43;;
14740;SDS011;7462;53.530;9.414;2023-02-15T03:49:30;22.37;;;14.77;;
14740;SDS011;7462;53.530;9.414;2023-02-15T03:52:08;18.33;;;13.57;;
14740;SDS011;7462;53.530;9.414;2023-02-15T03:54:38;21.03;;;14.90;;
14740;SDS011;7462;53.530;9.414;2023-02-15T03:57:14;22.67;;;15.27;;
14740;SDS011;7462;53.530;9.414;2023-02-15T04:00:02;20.27;;;15.07;;
14740;SDS011;7462;53.530;9.414;2023-02-15T04:03:00;16.17;;;12.17;;
14740;SDS011;7462;53.530;9.414;2023-02-15T04:05:37;20.00;;;14.63;;
14740;SDS011;7462;53.530;9.414;2023-02-15T04:08:06;21.67;;;17.50;;
14740;SDS011;7462;53.530;9.414;2023-02-15T04:10:35;24.03;;;16.40;;
14740;SDS011;7462;53.530;9.414;2023-02-15T04:13:24;18.53;;;15.30;;
14740;SDS011;7462;53.530;9.414;2023-02-15T04:15:57;20.60;;;15.77;;
14740;SDS011;7462;53.530;9.414;2023-02-15T04:18:34;21.87;;;16.60;;
14740;SDS011;7462;53.530;9.414;2023-02-15T04:21:22;20.03;;;15.60;;
14740;SDS011;7462;53.530;9.414;2023-02-15T04:24:10;17.83;;;13.03;;
14740;SDS011;7462;53.530;9.414;2023-02-15T04:26:56;18.00;;;14.43;;
14740;SDS011;7462;53.530;9.414;2023-02-15T04:29:24;18.60;;;14.20;;
14740;SDS011;7462;53.530;9.414;2023-02-15T04:31:54;23.53;;;17.37;;
14740;SDS011;7462;53.530;9.414;2023-02-15T04:34:24;22.47;;;17.47;;
14740;SDS011;7462;53.530;9.414;2023-02-15T04:36:53;20.17;;;16.33;;
14740;SDS011;7462;53.530;9.414;2023-02-15T04:39:22;22.00;;;16.33;;
14740;SDS011;7462;53.530;9.414;2023-02-15T04:41:50;18.13;;;14.63;;
14740;SDS011;7462;53.530;9.414;2023-02-15T04:44:18;20.00;;;15.37;;
14740;SDS011;7462;53.530;9.414;2023-02-15T04:46:46;19.83;;;15.37;;
14740;SDS011;7462;53.530;9.414;2023-02-15T04:49:14;23.57;;;14.70;;
14740;SDS011;7462;53.530;9.414;2023-02-15T04:51:42;19.57;;;14.70;;
14740;SDS011;7462;53.530;9.414;2023-02-15T04:54:10;18.70;;;14.87;;
14740;SDS011;7462;53.530;9.414;2023-02-15T04:56:39;18.00;;;14.60;;
14740;SDS011;7462;53.530;9.414;2023-02-15T04:59:09;16.07;;;12.47;;
14740;SDS011;7462;53.530;9.414;2023-02-15T05:01:37;18.13;;;14.27;;
14740;SDS011;7462;53.530;9.414;2023-02-15T05:04:05;18.13;;;14.43;;
14740;SDS011;7462;53.530;9.414;2023-02-15T05:06:33;18.47;;;14.97;;
14740;SDS011;7462;53.530;9.414;2023-02-15T05:09:02;26.80;;;13.67;;
14740;SDS011;7462;53.530;9.414;2023-02-15T05:11:30;16.77;;;12.80;;
14740;SDS011;7462;53.530;9.414;2023-02-15T05:13:59;15.63;;;13.30;;
14740;SDS011;7462;53.530;9.414;2023-02-15T05:16:27;21.03;;;12.97;;
14740;SDS011;7462;53.530;9.414;2023-02-15T05:18:55;20.13;;;13.47;;
14740;SDS011;7462;53.530;9.414;2023-02-15T05:21:24;17.00;;;13.10;;
14740;SDS011;7462;53.530;9.414;2023-02-15T05:23:52;16.43;;;12.97;;
14740;SDS011;7462;53.530;9.414;2023-02-15T05:26:22;14.53;;;11.77;;
14740;SDS011;7462;53.530;9.414;2023-02-15T05:29:10;20.10;;;15.57;;
14740;SDS011;7462;53.530;9.414;2023-02-15T05:31:38;19.27;;;12.23;;
14740;SDS011;7462;53.530;9.414;2023-02-15T05:34:06;17.43;;;13.53;;
14740;SDS011;7462;53.530;9.414;2023-02-15T05:36:35;22.23;;;16.97;;
14740;SDS011;7462;53.530;9.414;2023-02-15T05:39:03;21.93;;;16.10;;
14740;SDS011;7462;53.530;9.414;2023-02-15T05:41:32;19.80;;;16.13;;
14740;SDS011;7462;53.530;9.414;2023-02-15T05:44:00;21.93;;;14.77;;
14740;SDS011;7462;53.530;9.414;2023-02-15T05:46:29;20.33;;;15.87;;
14740;SDS011;7462;53.530;9.414;2023-02-15T05:48:57;21.00;;;16.73;;
14740;SDS011;7462;53.530;9.414;2023-02-15T05:51:25;19.47;;;14.87;;
14740;SDS011;7462;53.530;9.414;2023-02-15T05:53:53;18.80;;;12.87;;
14740;SDS011;7462;53.530;9.414;2023-02-15T05:56:21;21.07;;;16.80;;
14740;SDS011;7462;53.530;9.414;2023-02-15T05:58:52;18.83;;;14.23;;
14740;SDS011;7462;53.530;9.414;2023-02-15T06:01:21;21.73;;;16.07;;
14740;SDS011;7462;53.530;9.414;2023-02-15T06:03:50;22.30;;;18.20;;
14740;SDS011;7462;53.530;9.414;2023-02-15T06:06:19;21.17;;;16.47;;
14740;SDS011;7462;53.530;9.414;2023-02-15T06:08:47;20.50;;;15.00;;
14740;SDS011;7462;53.530;9.414;2023-02-15T06:11:15;19.30;;;16.07;;
14740;SDS011;7462;53.530;9.414;2023-02-15T06:13:43;17.77;;;13.10;;
14740;SDS011;7462;53.530;9.414;2023-02-15T06:16:11;21.00;;;16.30;;
14740;SDS011;7462;53.530;9.414;2023-02-15T06:18:42;19.73;;;15.07;;
14740;SDS011;7462;53.530;9.414;2023-02-15T06:21:12;17.17;;;12.87;;
14740;SDS011;7462;53.530;9.414;2023-02-15T06:23:40;23.23;;;16.83;;
14740;SDS011;7462;53.530;9.414;2023-02-15T06:26:08;23.20;;;16.80;;
14740;SDS011;7462;53.530;9.414;2023-02-15T06:28:36;18.67;;;15.43;;
14740;SDS011;7462;53.530;9.414;2023-02-15T06:31:04;19.37;;;16.13;;
14740;SDS011;7462;53.530;9.414;2023-02-15T06:33:32;19.07;;;14.67;;
14740;SDS011;7462;53.530;9.414;2023-02-15T06:36:01;17.83;;;14.30;;
14740;SDS011;7462;53.530;9.414;2023-02-15T06:38:31;17.40;;;14.57;;
14740;SDS011;7462;53.530;9.414;2023-02-15T06:40:59;20.40;;;14.30;;
14740;SDS011;7462;53.530;9.414;2023-02-15T06:43:27;21.83;;;14.03;;
14740;SDS011;7462;53.530;9.414;2023-02-15T06:45:56;17.53;;;14.13;;
14740;SDS011;7462;53.530;9.414;2023-02-15T06:48:24;22.47;;;14.27;;
14740;SDS011;7462;53.530;9.414;2023-02-15T06:50:52;22.77;;;14.50;;
14740;SDS011;7462;53.530;9.414;2023-02-15T06:53:20;18.10;;;13.33;;
14740;SDS011;7462;53.530;9.414;2023-02-15T06:55:50;19.30;;;13.30;;
14740;SDS011;7462;53.530;9.414;2023-02-15T06:58:19;28.97;;;13.50;;
14740;SDS011;7462;53.530;9.414;2023-02-15T07:00:48;15.23;;;12.50;;
14740;SDS011;7462;53.530;9.414;2023-02-15T07:03:16;15.90;;;12.87;;
14740;SDS011;7462;53.530;9.414;2023-02-15T07:05:44;16.70;;;13.77;;
14740;SDS011;7462;53.530;9.414;2023-02-15T07:08:14;18.33;;;14.03;;
14740;SDS011;7462;53.530;9.414;2023-02-15T07:10:43;17.17;;;14.10;;
14740;SDS011;7462;53.530;9.414;2023-02-15T07:13:12;15.07;;;12.40;;
14740;SDS011;7462;53.530;9.414;2023-02-15T07:15:39;14.20;;;12.13;;
14740;SDS011;7462;53.530;9.414;2023-02-15T07:18:07;16.70;;;13.03;;
14740;SDS011;7462;53.530;9.414;2023-02-15T07:20:37;17.60;;;12.63;;
14740;SDS011;7462;53.530;9.414;2023-02-15T07:23:07;16.73;;;12.83;;
14740;SDS011;7462;53.530;9.414;2023-02-15T07:25:35;15.37;;;13.00;;
14740;SDS011;7462;53.530;9.414;2023-02-15T07:28:03;15.63;;;13.07;;
14740;SDS011;7462;53.530;9.414;2023-02-15T07:30:33;14.97;;;12.60;;
14740;SDS011;7462;53.530;9.414;2023-02-15T07:33:02;17.23;;;13.33;;
14740;SDS011;7462;53.530;9.414;2023-02-15T07:35:48;15.00;;;12.60;;
14740;SDS011;7462;53.530;9.414;2023-02-15T07:38:16;14.80;;;12.77;;
14740;SDS011;7462;53.530;9.414;2023-02-15T07:40:45;19.30;;;12.90;;
14740;SDS011;7462;53.530;9.414;2023-02-15T07:43:13;15.47;;;13.27;;
14740;SDS011;7462;53.530;9.414;2023-02-15T07:45:43;16.00;;;13.50;;
14740;SDS011;7462;53.530;9.414;2023-02-15T07:48:11;17.80;;;13.33;;
14740;SDS011;7462;53.530;9.414;2023-02-15T07:50:39;24.67;;;13.23;;
14740;SDS011;7462;53.530;9.414;2023-02-15T07:53:07;16.30;;;12.20;;
14740;SDS011;7462;53.530;9.414;2023-02-15T07:55:35;15.23;;;12.93;;
14740;SDS011;7462;53.530;9.414;2023-02-15T07:58:03;15.87;;;13.37;;
14740;SDS011;7462;53.530;9.414;2023-02-15T08:00:31;16.77;;;13.00;;
14740;SDS011;7462;53.530;9.414;2023-02-15T08:03:20;19.63;;;14.33;;
14740;SDS011;7462;53.530;9.414;2023-02-15T08:05:55;17.73;;;13.97;;
14740;SDS011;7462;53.530;9.414;2023-02-15T08:08:25;16.47;;;13.43;;
14740;SDS011;7462;53.530;9.414;2023-02-15T08:11:00;17.80;;;12.83;;
14740;SDS011;7462;53.530;9.414;2023-02-15T08:13:48;18.57;;;14.33;;
14740;SDS011;7462;53.530;9.414;2023-02-15T08:16:27;19.80;;;13.70;;
14740;SDS011;7462;53.530;9.414;2023-02-15T08:18:59;21.37;;;14.83;;
14740;SDS011;7462;53.530;9.414;2023-02-15T08:21:29;22.20;;;14.93;;
14740;SDS011;7462;53.530;9.414;2023-02-15T08:23:58;19.93;;;15.17;;
14740;SDS011;7462;53.530;9.414;2023-02-15T08:26:27;17.33;;;12.50;;
14740;SDS011;7462;53.530;9.414;2023-02-15T08:28:56;18.60;;;14.37;;
14740;SDS011;7462;53.530;9.414;2023-02-15T08:31:25;20.97;;;16.00;;
14740;SDS011;7462;53.530;9.414;2023-02-15T08:33:54;19.63;;;14.97;;
14740;SDS011;7462;53.530;9.414;2023-02-15T08:36:25;21.40;;;15.67;;
14740;SDS011;7462;53.530;9.414;2023-02-15T08:38:56;25.03;;;16.63;;
14740;SDS011;7462;53.530;9.414;2023-02-15T08:41:26;21.67;;;16.63;;
14740;SDS011;7462;53.530;9.414;2023-02-15T08:43:57;23.13;;;16.90;;
14740;SDS011;7462;53.530;9.414;2023-02-15T08:46:27;21.40;;;14.80;;
14740;SDS011;7462;53.530;9.414;2023-02-15T08:48:56;20.70;;;15.73;;
14740;SDS011;7462;53.530;9.414;2023-02-15T08:51:26;23.30;;;16.30;;
14740;SDS011;7462;53.530;9.414;2023-02-15T08:53:57;23.70;;;17.00;;
14740;SDS011;7462;53.530;9.414;2023-02-15T08:56:27;22.33;;;16.40;;
14740;SDS011;7462;53.530;9.414;2023-02-15T08:58:58;25.73;;;20.03;;
14740;SDS011;7462;53.530;9.414;2023-02-15T09:01:27;24.40;;;17.03;;
14740;SDS011;7462;53.530;9.414;2023-02-15T09:03:57;26.10;;;19.30;;
14740;SDS011;7462;53.530;9.414;2023-02-15T09:06:28;23.03;;;17.53;;
14740;SDS011;7462;53.530;9.414;2023-02-15T09:08:56;25.67;;;19.43;;
14740;SDS011;7462;53.530;9.414;2023-02-15T09:11:25;26.90;;;18.30;;
14740;SDS011;7462;53.530;9.414;2023-02-15T09:13:55;24.37;;;18.10;;
14740;SDS011;7462;53.530;9.414;2023-02-15T09:16:24;22.07;;;17.13;;
14740;SDS011;7462;53.530;9.414;2023-02-15T09:18:54;21.60;;;17.27;;
14740;SDS011;7462;53.530;9.414;2023-02-15T09:21:24;22.37;;;17.03;;
14740;SDS011;7462;53.530;9.414;2023-02-15T09:23:56;22.60;;;16.47;;
14740;SDS011;7462;53.530;9.414;2023-02-15T09:26:27;22.17;;;17.30;;
14740;SDS011;7462;53.530;9.414;2023-02-15T09:28:57;27.30;;;18.40;;
14740;SDS011;7462;53.530;9.414;2023-02-15T09:31:27;22.90;;;17.33;;
14740;SDS011;7462;53.530;9.414;2023-02-15T09:33:57;23.77;;;18.20;;
14740;SDS011;7462;53.530;9.414;2023-02-15T09:36:30;24.00;;;18.93;;
14740;SDS011;7462;53.530;9.414;2023-02-15T09:39:01;23.30;;;18.67;;
14740;SDS011;7462;53.530;9.414;2023-02-15T09:41:47;23.07;;;17.00;;
14740;SDS011;7462;53.530;9.414;2023-02-15T09:47:52;24.17;;;18.40;;
14740;SDS011;7462;53.530;9.414;2023-02-15T09:50:43;26.33;;;20.17;;
14740;SDS011;7462;53.530;9.414;2023-02-15T09:53:31;26.43;;;18.83;;
14740;SDS011;7462;53.530;9.414;2023-02-15T09:56:17;28.57;;;20.00;;
14740;SDS011;7462;53.530;9.414;2023-02-15T09:58:57;28.17;;;21.47;;
14740;SDS011;7462;53.530;9.414;2023-02-15T10:01:36;29.17;;;21.97;;
14740;SDS011;7462;53.530;9.414;2023-02-15T10:04:16;28.17;;;20.90;;
14740;SDS011;7462;53.530;9.414;2023-02-15T10:07:00;29.77;;;21.20;;
14740;SDS011;7462;53.530;9.414;2023-02-15T10:09:46;31.93;;;21.47;;
14740;SDS011;7462;53.530;9.414;2023-02-15T10:12:39;28.77;;;21.00;;
14740;SDS011;7462;53.530;9.414;2023-02-15T10:15:22;34.70;;;24.43;;
14740;SDS011;7462;53.530;9.414;2023-02-15T10:18:06;37.40;;;24.43;;
14740;SDS011;7462;53.530;9.414;2023-02-15T10:20:46;33.53;;;24.17;;
14740;SDS011;7462;53.530;9.414;2023-02-15T10:23:26;31.43;;;23.00;;
14740;SDS011;7462;53.530;9.414;2023-02-15T10:26:05;33.80;;;24.30;;
14740;SDS011;7462;53.530;9.414;2023-02-15T10:28:42;32.87;;;24.73;;
14740;SDS011;7462;53.530;9.414;2023-02-15T10:31:18;36.80;;;25.20;;
14740;SDS011;7462;53.530;9.414;2023-02-15T10:33:55;30.63;;;23.83;;
14740;SDS011;7462;53.530;9.414;2023-02-15T10:36:41;30.60;;;23.07;;
14740;SDS011;7462;53.530;9.414;2023-02-15T10:39:20;36.63;;;25.63;;
14740;SDS011;7462;53.530;9.414;2023-02-15T10:41:53;31.80;;;23.73;;
14740;SDS011;7462;53.530;9.414;2023-02-15T10:44:36;33.43;;;26.10;;
14740;SDS011;7462;53.530;9.414;2023-02-15T10:50:25;35.43;;;26.13;;
14740;SDS011;7462;53.530;9.414;2023-02-15T10:53:08;41.17;;;26.33;;
14740;SDS011;7462;53.530;9.414;2023-02-15T10:55:46;40.00;;;27.37;;
14740;SDS011;7462;53.530;9.414;2023-02-15T10:58:24;32.60;;;24.17;;
14740;SDS011;7462;53.530;9.414;2023-02-15T11:01:02;36.57;;;26.53;;
14740;SDS011;7462;53.530;9.414;2023-02-15T11:03:41;35.03;;;25.97;;
14740;SDS011;7462;53.530;9.414;2023-02-15T11:06:19;37.77;;;27.17;;
14740;SDS011;7462;53.530;9.414;2023-02-15T11:08:49;36.17;;;26.70;;
14740;SDS011;7462;53.530;9.414;2023-02-15T11:11:22;34.17;;;25.00;;
14740;SDS011;7462;53.530;9.414;2023-02-15T11:13:56;35.53;;;27.33;;
14740;SDS011;7462;53.530;9.414;2023-02-15T11:16:30;39.47;;;29.47;;
14740;SDS011;7462;53.530;9.414;2023-02-15T11:19:03;39.20;;;28.93;;
14740;SDS011;7462;53.530;9.414;2023-02-15T11:21:36;37.73;;;29.30;;
14740;SDS011;7462;53.530;9.414;2023-02-15T11:24:09;37.10;;;28.17;;
14740;SDS011;7462;53.530;9.414;2023-02-15T11:26:39;37.00;;;28.33;;
14740;SDS011;7462;53.530;9.414;2023-02-15T11:29:10;38.33;;;28.80;;
14740;SDS011;7462;53.530;9.414;2023-02-15T11:31:44;36.43;;;28.23;;
14740;SDS011;7462;53.530;9.414;2023-02-15T11:34:17;38.27;;;29.43;;
14740;SDS011;7462;53.530;9.414;2023-02-15T11:36:49;38.03;;;28.67;;
14740;SDS011;7462;53.530;9.414;2023-02-15T11:39:19;39.87;;;29.17;;
14740;SDS011;7462;53.530;9.414;2023-02-15T11:41:50;41.10;;;30.13;;
14740;SDS011;7462;53.530;9.414;2023-02-15T11:44:23;39.93;;;30.20;;
14740;SDS011;7462;53.530;9.414;2023-02-15T11:46:56;38.83;;;30.33;;
14740;SDS011;7462;53.530;9.414;2023-02-15T11:49:26;39.90;;;30.17;;
14740;SDS011;7462;53.530;9.414;2023-02-15T11:51:58;41.30;;;31.87;;
14740;SDS011;7462;53.530;9.414;2023-02-15T11:54:30;41.50;;;31.57;;
14740;SDS011;7462;53.530;9.414;2023-02-15T11:57:03;40.47;;;31.83;;
14740;SDS011;7462;53.530;9.414;2023-02-15T11:59:39;41.43;;;31.77;;
14740;SDS011;7462;53.530;9.414;2023-02-15T12:02:15;41.30;;;30.87;;
14740;SDS011;7462;53.530;9.414;2023-02-15T12:04:46;41.97;;;31.97;;
14740;SDS011;7462;53.530;9.414;2023-02-15T12:07:20;42.30;;;32.53;;
14740;SDS011;7462;53.530;9.414;2023-02-15T12:09:52;42.33;;;32.10;;
14740;SDS011;7462;53.530;9.414;2023-02-15T12:12:27;41.47;;;32.53;;
14740;SDS011;7462;53.530;9.414;2023-02-15T12:14:57;43.37;;;34.23;;
14740;SDS011;7462;53.530;9.414;2023-02-15T12:17:28;44.17;;;34.93;;
14740;SDS011;7462;53.530;9.414;2023-02-15T12:19:59;45.17;;;34.57;;
14740;SDS011;7462;53.530;9.414;2023-02-15T12:22:30;45.10;;;35.27;;
14740;SDS011;7462;53.530;9.414;2023-02-15T12:25:00;46.60;;;35.80;;
14740;SDS011;7462;53.530;9.414;2023-02-15T12:27:32;42.70;;;35.37;;
14740;SDS011;7462;53.530;9.414;2023-02-15T12:30:03;43.70;;;35.53;;
14740;SDS011;7462;53.530;9.414;2023-02-15T12:32:46;43.47;;;33.33;;
14740;SDS011;7462;53.530;9.414;2023-02-15T12:35:18;45.33;;;35.47;;
14740;SDS011;7462;53.530;9.414;2023-02-15T12:37:54;44.23;;;35.90;;
14740;SDS011;7462;53.530;9.414;2023-02-15T12:40:24;43.63;;;36.17;;
14740;SDS011;7462;53.530;9.414;2023-02-15T12:42:56;42.47;;;34.13;;
14740;SDS011;7462;53.530;9.414;2023-02-15T12:45:25;42.97;;;35.00;;
14740;SDS011;7462;53.530;9.414;2023-02-15T12:48:09;41.70;;;34.63;;
14740;SDS011;7462;53.530;9.414;2023-02-15T12:50:43;41.93;;;33.67;;
14740;SDS011;7462;53.530;9.414;2023-02-15T12:53:14;37.93;;;30.27;;
14740;SDS011;7462;53.530;9.414;2023-02-15T12:55:49;37.63;;;32.03;;
14740;SDS011;7462;53.530;9.414;2023-02-15T12:58:19;40.03;;;32.40;;
14740;SDS011;7462;53.530;9.414;2023-02-15T13:03:55;42.80;;;34.30;;
14740;SDS011;7462;53.530;9.414;2023-02-15T13:06:25;42.53;;;33.40;;
14740;SDS011;7462;53.530;9.414;2023-02-15T13:08:55;40.10;;;33.53;;
14740;SDS011;7462;53.530;9.414;2023-02-15T13:11:26;39.10;;;32.47;;
14740;SDS011;7462;53.530;9.414;2023-02-15T13:14:01;40.60;;;33.00;;
14740;SDS011;7462;53.530;9.414;2023-02-15T13:16:32;43.37;;;33.90;;
14740;SDS011;7462;53.530;9.414;2023-02-15T13:19:04;40.27;;;33.07;;
14740;SDS011;7462;53.530;9.414;2023-02-15T13:21:39;33.80;;;29.20;;
14740;SDS011;7462;53.530;9.414;2023-02-15T13:24:14;40.97;;;33.57;;
14740;SDS011;7462;53.530;9.414;2023-02-15T13:26:46;38.87;;;31.23;;
14740;SDS011;7462;53.530;9.414;2023-02-15T13:29:16;42.20;;;32.57;;
14740;SDS011;7462;53.530;9.414;2023-02-15T13:31:49;41.90;;;33.10;;
14740;SDS011;7462;53.530;9.414;2023-02-15T13:34:22;37.87;;;31.80;;
14740;SDS011;7462;53.530;9.414;2023-02-15T13:36:54;37.97;;;31.57;;
14740;SDS011;7462;53.530;9.414;2023-02-15T13:39:30;35.13;;;30.70;;
14740;SDS011;7462;53.530;9.414;2023-02-15T13:42:12;38.50;;;30.80;;
14740;SDS011;7462;53.530;9.414;2023-02-15T13:45:00;38.07;;;30.83;;
14740;SDS011;7462;53.530;9.414;2023-02-15T13:47:38;34.50;;;29.43;;
14740;SDS011;7462;53.530;9.414;2023-02-15T13:50:21;36.50;;;31.17;;
14740;SDS011;7462;53.530;9.414;2023-02-15T13:53:09;33.70;;;28.20;;
14740;SDS011;7462;53.530;9.414;2023-02-15T13:55:56;40.27;;;30.57;;
14740;SDS011;7462;53.530;9.414;2023-02-15T14:01:39;37.10;;;31.03;;
14740;SDS011;7462;53.530;9.414;2023-02-15T14:04:17;36.30;;;30.37;;
14740;SDS011;7462;53.530;9.414;2023-02-15T14:07:00;39.43;;;31.43;;
14740;SDS011;7462;53.530;9.414;2023-02-15T14:09:40;35.50;;;30.67;;
14740;SDS011;7462;53.530;9.414;2023-02-15T14:12:22;38.47;;;31.33;;
14740;SDS011;7462;53.530;9.414;2023-02-15T14:15:02;35.50;;;29.87;;
14740;SDS011;7462;53.530;9.414;2023-02-15T14:17:45;39.33;;;31.27;;
14740;SDS011;7462;53.530;9.414;2023-02-15T14:20:22;34.73;;;28.10;;
14740;SDS011;7462;53.530;9.414;2023-02-15T14:23:03;37.40;;;30.33;;
14740;SDS011;7462;53.530;9.414;2023-02-15T14:25:40;36.47;;;30.17;;
14740;SDS011;7462;53.530;9.414;2023-02-15T14:28:13;37.50;;;29.90;;
14740;SDS011;7462;53.530;9.414;2023-02-15T14:30:44;34.90;;;29.37;;
14740;SDS011;7462;53.530;9.414;2023-02-15T14:33:24;36.27;;;31.07;;
14740;SDS011;7462;53.530;9.414;2023-02-15T14:36:02;35.53;;;28.83;;
14740;SDS011;7462;53.530;9.414;2023-02-15T14:38:39;38.47;;;31.07;;
14740;SDS011;7462;53.530;9.414;2023-02-15T14:41:17;36.03;;;28.67;;
14740;SDS011;7462;53.530;9.414;2023-02-15T14:43:49;39.00;;;31.23;;
14740;SDS011;7462;53.530;9.414;2023-02-15T14:46:25;36.60;;;29.67;;
14740;SDS011;7462;53.530;9.414;2023-02-15T14:48:58;35.87;;;29.60;;
14740;SDS011;7462;53.530;9.414;2023-02-15T14:57:27;37.80;;;30.70;;
14740;SDS011;7462;53.530;9.414;2023-02-15T15:03:00;39.93;;;31.77;;
14740;SDS011;7462;53.530;9.414;2023-02-15T15:05:31;37.30;;;30.80;;
14740;SDS011;7462;53.530;9.414;2023-02-15T15:08:01;40.03;;;30.33;;
14740;SDS011;7462;53.530;9.414;2023-02-15T15:10:34;37.57;;;31.17;;
14740;SDS011;7462;53.530;9.414;2023-02-15T15:16:29;37.47;;;28.33;;
14740;SDS011;7462;53.530;9.414;2023-02-15T15:19:56;40.30;;;29.77;;
14740;SDS011;7462;53.530;9.414;2023-02-15T15:22:35;35.13;;;27.47;;
14740;SDS011;7462;53.530;9.414;2023-02-15T15:25:04;40.30;;;31.07;;
14740;SDS011;7462;53.530;9.414;2023-02-15T15:33:25;36.27;;;30.00;;
14740;SDS011;7462;53.530;9.414;2023-02-15T15:42:55;35.80;;;29.63;;
14740;SDS011;7462;53.530;9.414;2023-02-15T15:45:46;38.90;;;30.03;;
14740;SDS011;7462;53.530;9.414;2023-02-15T15:48:28;38.30;;;29.70;;
14740;SDS011;7462;53.530;9.414;2023-02-15T15:51:00;38.83;;;30.63;;
14740;SDS011;7462;53.530;9.414;2023-02-15T15:53:37;40.97;;;29.87;;
14740;SDS011;7462;53.530;9.414;2023-02-15T15:56:10;41.40;;;30.13;;
14740;SDS011;7462;53.530;9.414;2023-02-15T15:58:46;43.07;;;31.73;;
14740;SDS011;7462;53.530;9.414;2023-02-15T16:01:23;42.50;;;31.80;;